createdAt,value
2022-08-09T00:00:11.361Z,2.22
2022-08-09T00:02:42.948Z,2.30
2022-08-09T00:06:18.832Z,2.28
2022-08-09T00:08:02.882Z,2.17
2022-08-09T00:10:29.745Z,2.10
2022-08-09T00:12:57.213Z,2.13
2022-08-09T00:15:35.286Z,2.13
2022-08-09T00:18:12.526Z,2.13
2022-08-09T00:20:48.343Z,2.20
2022-08-09T00:23:55.409Z,2.50
2022-08-09T00:26:06.273Z,2.72
2022-08-09T00:28:34.566Z,2.20
2022-08-09T00:31:50.391Z,2.45
2022-08-09T00:33:51.903Z,2.08
2022-08-09T00:36:19.808Z,2.15
2022-08-09T00:38:46.795Z,2.47
2022-08-09T00:44:10.786Z,2.30
2022-08-09T00:44:14.341Z,2.65
2022-08-09T00:46:56.914Z,2.40
2022-08-09T00:49:30.310Z,2.25
2022-08-09T00:51:58.760Z,2.63
2022-08-09T00:54:36.034Z,2.50
2022-08-09T00:57:10.325Z,2.47
2022-08-09T00:59:46.478Z,3.15
2022-08-09T01:02:29.950Z,2.50
2022-08-09T01:05:50.785Z,2.53
2022-08-09T01:08:26.751Z,2.60
2022-08-09T01:11:08.660Z,2.33
2022-08-09T01:13:59.029Z,2.30
2022-08-09T01:16:33.019Z,3.03
2022-08-09T01:19:17.172Z,3.13
2022-08-09T01:22:16.897Z,2.50
2022-08-09T01:24:54.007Z,3.08
2022-08-09T01:27:24.543Z,2.63
2022-08-09T01:29:58.901Z,2.80
2022-08-09T01:32:38.940Z,2.65
2022-08-09T01:35:29.065Z,3.03
2022-08-09T01:38:07.772Z,2.92
2022-08-09T01:40:42.933Z,2.67
2022-08-09T01:43:11.563Z,2.08
2022-08-09T01:45:44.633Z,2.97
2022-08-09T01:48:16.396Z,2.17
2022-08-09T01:50:48.410Z,3.22
2022-08-09T01:53:19.976Z,3.00
2022-08-09T01:55:49.800Z,2.80
2022-08-09T01:58:18.488Z,2.53
2022-08-09T02:00:53.203Z,3.20
2022-08-09T02:03:21.592Z,3.00
2022-08-09T02:06:04.061Z,2.85
2022-08-09T02:08:57.363Z,2.78
2022-08-09T02:11:42.621Z,2.45
2022-08-09T02:14:16.009Z,2.88
2022-08-09T02:17:00.109Z,2.55
2022-08-09T02:19:43.458Z,2.47
2022-08-09T02:22:19.062Z,2.60
2022-08-09T02:24:58.638Z,2.78
2022-08-09T02:27:57.486Z,3.05
2022-08-09T02:30:16.166Z,2.78
2022-08-09T02:32:47.525Z,3.00
2022-08-09T02:35:28.787Z,2.80
2022-08-09T02:38:11.299Z,3.10
2022-08-09T02:40:49.548Z,3.50
2022-08-09T02:43:19.196Z,2.85
2022-08-09T02:45:49.619Z,3.15
2022-08-09T02:48:29.777Z,3.00
2022-08-09T02:51:02.421Z,3.50
2022-08-09T02:53:43.120Z,3.40
2022-08-09T02:56:21.434Z,3.00
2022-08-09T02:58:50.314Z,3.00
2022-08-09T03:01:29.171Z,2.92
2022-08-09T03:04:17.980Z,3.05
2022-08-09T03:06:48.954Z,2.50
2022-08-09T03:09:17.208Z,2.70
2022-08-09T03:12:05.838Z,2.83
2022-08-09T03:14:32.875Z,2.55
2022-08-09T03:17:01.687Z,2.90
2022-08-09T03:19:59.588Z,3.15
2022-08-09T03:22:25.494Z,3.22
2022-08-09T03:25:06.736Z,3.17
2022-08-09T03:27:50.718Z,3.30
2022-08-09T03:30:29.556Z,3.22
2022-08-09T03:33:12.718Z,2.85
2022-08-09T03:36:11.087Z,2.97
2022-08-09T03:38:28.710Z,3.40
2022-08-09T03:40:57.910Z,3.40
2022-08-09T03:43:25.090Z,2.97
2022-08-09T03:46:04.341Z,3.10
2022-08-09T03:48:51.802Z,3.38
2022-08-09T03:51:57.534Z,2.95
2022-08-09T03:54:10.842Z,3.03
2022-08-09T03:56:41.029Z,3.15
2022-08-09T03:59:17.230Z,3.03
2022-08-09T04:01:59.197Z,3.28
2022-08-09T04:04:36.265Z,3.70
2022-08-09T04:07:06.126Z,3.30
2022-08-09T04:09:47.758Z,3.67
2022-08-09T04:12:35.724Z,3.50
2022-08-09T04:15:17.230Z,3.22
2022-08-09T04:17:50.907Z,3.40
2022-08-09T04:20:18.799Z,3.38
2022-08-09T04:22:46.463Z,3.28
2022-08-09T04:25:13.290Z,3.33
2022-08-09T04:27:46.767Z,3.50
2022-08-09T04:30:20.874Z,3.25
2022-08-09T04:32:51.525Z,3.20
2022-08-09T04:35:21.887Z,3.13
2022-08-09T04:37:49.658Z,3.40
2022-08-09T04:40:18.956Z,3.38
2022-08-09T04:42:48.514Z,2.90
2022-08-09T04:45:16.631Z,3.55
2022-08-09T04:48:01.010Z,3.60
2022-08-09T04:50:33.632Z,3.70
2022-08-09T04:53:13.581Z,3.45
2022-08-09T04:55:57.864Z,3.78
2022-08-09T04:58:31.694Z,3.60
2022-08-09T05:01:00.383Z,3.38
2022-08-09T05:03:40.169Z,3.80
2022-08-09T05:06:12.060Z,3.72
2022-08-09T05:08:52.670Z,3.70
2022-08-09T05:11:30.647Z,3.70
2022-08-09T05:14:05.716Z,3.70
2022-08-09T05:16:58.071Z,3.72
2022-08-09T05:19:25.981Z,3.80
2022-08-09T05:21:58.972Z,3.80
2022-08-09T05:24:27.207Z,3.90
2022-08-09T05:26:54.905Z,3.95
2022-08-09T05:29:24.085Z,3.90
2022-08-09T05:32:00.426Z,4.10
2022-08-09T05:34:31.055Z,4.07
2022-08-09T05:37:05.263Z,4.03
2022-08-09T05:39:36.533Z,3.95
2022-08-09T05:42:18.024Z,4.18
2022-08-09T05:44:50.938Z,4.38
2022-08-09T05:47:23.048Z,4.38
2022-08-09T05:50:28.091Z,4.07
2022-08-09T05:52:42.863Z,4.97
2022-08-09T05:55:20.669Z,4.80
2022-08-09T05:57:50.750Z,4.45
2022-08-09T06:00:30.379Z,4.95
2022-08-09T06:03:03.478Z,4.78
2022-08-09T06:05:57.422Z,4.97
2022-08-09T06:08:24.709Z,5.43
2022-08-09T06:10:56.325Z,5.13
2022-08-09T06:13:25.592Z,4.32
2022-08-09T06:15:55.373Z,4.25
2022-08-09T06:18:23.940Z,4.53
2022-08-09T06:20:54.722Z,5.05
2022-08-09T06:23:57.777Z,4.30
2022-08-09T06:26:12.564Z,4.05
2022-08-09T06:28:40.143Z,4.15
2022-08-09T06:31:10.518Z,4.20
2022-08-09T06:33:40.899Z,3.53
2022-08-09T06:36:09.548Z,3.15
2022-08-09T06:38:47.914Z,3.15
2022-08-09T06:41:19.048Z,2.85
2022-08-09T06:43:47.982Z,2.88
2022-08-09T06:46:39.944Z,3.10
2022-08-09T06:49:02.589Z,3.13
2022-08-09T06:51:29.423Z,2.85
2022-08-09T06:54:00.975Z,3.28
2022-08-09T06:56:30.988Z,2.75
2022-08-09T07:00:48.642Z,3.40
2022-08-09T07:01:54.526Z,2.97
2022-08-09T07:04:25.093Z,3.30
2022-08-09T07:06:59.940Z,2.97
2022-08-09T07:12:18.658Z,2.60
2022-08-09T07:14:51.286Z,2.55
2022-08-09T07:17:21.592Z,2.42
2022-08-09T07:19:50.912Z,2.45
2022-08-09T07:22:34.782Z,2.28
2022-08-09T07:25:09.698Z,2.10
2022-08-09T07:27:43.094Z,2.35
2022-08-09T07:30:21.705Z,2.10
2022-08-09T07:32:52.108Z,2.40
2022-08-09T07:35:19.406Z,2.20
2022-08-09T07:37:49.207Z,1.85
2022-08-09T07:40:20.491Z,2.05
2022-08-09T07:42:59.364Z,2.53
2022-08-09T07:45:39.128Z,2.43
2022-08-09T07:48:22.472Z,2.10
2022-08-09T07:51:08.978Z,1.92
2022-08-09T07:54:04.428Z,1.98
2022-08-09T07:56:31.899Z,1.73
2022-08-09T07:58:59.484Z,1.75
2022-08-09T08:01:32.946Z,1.42
2022-08-09T08:04:00.435Z,2.08
2022-08-09T08:06:31.985Z,1.70
2022-08-09T08:09:04.448Z,1.77
2022-08-09T08:12:11.503Z,1.63
2022-08-09T08:14:21.071Z,1.73
2022-08-09T08:16:51.239Z,1.60
2022-08-09T08:19:34.280Z,1.67
2022-08-09T08:22:02.244Z,1.50
2022-08-09T08:24:35.446Z,1.35
2022-08-09T08:27:16.517Z,1.40
2022-08-09T08:29:45.238Z,1.35
2022-08-09T08:32:18.899Z,1.50
2022-08-09T08:34:51.983Z,1.50
2022-08-09T08:37:22.035Z,1.30
2022-08-09T08:39:52.023Z,1.40
2022-08-09T08:42:19.116Z,1.55
2022-08-09T08:45:00.502Z,1.90
2022-08-09T08:47:42.853Z,1.40
2022-08-09T08:50:17.911Z,1.98
2022-08-09T08:52:59.449Z,1.40
2022-08-09T08:55:28.347Z,1.35
2022-08-09T08:57:59.155Z,1.42
2022-08-09T09:00:30.194Z,1.60
2022-08-09T09:03:11.727Z,1.50
2022-08-09T09:06:00.417Z,1.30
2022-08-09T09:08:42.499Z,1.25
2022-08-09T09:11:17.181Z,1.40
2022-08-09T09:13:56.790Z,1.38
2022-08-09T09:16:35.111Z,1.33
2022-08-09T09:19:37.665Z,1.70
2022-08-09T09:22:07.574Z,1.58
2022-08-09T09:24:38.200Z,1.85
2022-08-09T09:27:08.693Z,1.50
2022-08-09T09:30:10.571Z,1.70
2022-08-09T09:32:34.450Z,1.70
2022-08-09T09:35:09.593Z,1.52
2022-08-09T09:37:40.666Z,1.63
2022-08-09T09:40:09.183Z,1.50
2022-08-09T09:42:36.282Z,1.42
2022-08-09T09:45:08.413Z,1.40
2022-08-09T09:47:47.762Z,1.63
2022-08-09T09:50:49.351Z,1.33
2022-08-09T09:53:21.262Z,1.77
2022-08-09T09:55:57.702Z,1.42
2022-08-09T09:58:48.113Z,1.40
2022-08-09T10:01:37.359Z,1.30
2022-08-09T10:04:15.863Z,1.60
2022-08-09T10:06:47.204Z,1.50
2022-08-09T10:09:22.564Z,1.48
2022-08-09T10:12:12.172Z,1.20
2022-08-09T10:14:49.915Z,1.75
2022-08-09T10:17:51.466Z,1.48
2022-08-09T10:20:27.806Z,1.10
2022-08-09T10:23:19.934Z,1.50
2022-08-09T10:26:07.678Z,1.35
2022-08-09T10:28:37.623Z,1.20
2022-08-09T10:34:11.258Z,1.42
2022-08-09T10:36:42.165Z,1.50
2022-08-09T10:39:15.905Z,1.20
2022-08-09T10:41:45.894Z,1.23
2022-08-09T10:44:18.265Z,1.35
2022-08-09T10:48:20.157Z,1.33
2022-08-09T10:50:49.063Z,1.33
2022-08-09T10:53:54.593Z,1.58
2022-08-09T10:56:30.836Z,1.60
2022-08-09T10:58:58.888Z,1.50
2022-08-09T11:03:15.571Z,1.58
2022-08-09T11:04:30.067Z,1.45
2022-08-09T11:07:00.205Z,1.65
2022-08-09T11:09:47.517Z,1.35
2022-08-09T11:12:26.580Z,1.30
2022-08-09T11:14:57.674Z,1.20
2022-08-09T11:17:24.479Z,1.20
2022-08-09T11:20:10.600Z,1.30
2022-08-09T11:22:44.951Z,1.20
2022-08-09T11:25:12.538Z,1.65
2022-08-09T11:28:05.077Z,1.40
2022-08-09T11:33:08.063Z,1.30
2022-08-09T11:35:56.774Z,1.17
2022-08-09T11:38:34.116Z,1.55
2022-08-09T11:41:37.642Z,1.23
2022-08-09T11:44:05.662Z,1.30
2022-08-09T11:46:56.881Z,1.25
2022-08-09T11:50:52.531Z,1.33
2022-08-09T11:53:21.146Z,1.73
2022-08-09T11:55:52.613Z,1.50
2022-08-09T11:58:30.325Z,1.20
2022-08-09T12:01:15.638Z,1.27
2022-08-09T12:04:00.802Z,1.52
2022-08-09T12:06:32.842Z,1.50
2022-08-09T12:09:15.222Z,1.55
2022-08-09T12:12:02.594Z,1.35
2022-08-09T12:14:36.853Z,1.30
2022-08-09T12:17:27.661Z,1.40
2022-08-09T12:20:02.518Z,1.45
2022-08-09T12:22:31.856Z,1.40
2022-08-09T12:25:35.673Z,1.10
2022-08-09T12:29:14.151Z,1.20
2022-08-09T12:32:02.507Z,1.40
2022-08-09T12:34:33.015Z,1.45
2022-08-09T12:37:22.327Z,1.40
2022-08-09T12:40:09.562Z,1.40
2022-08-09T12:42:43.011Z,1.40
2022-08-09T12:45:34.733Z,1.20
2022-08-09T12:47:57.564Z,1.33
2022-08-09T12:50:25.104Z,1.40
2022-08-09T12:53:09.526Z,1.52
2022-08-09T12:56:12.334Z,1.20
2022-08-09T12:58:27.879Z,1.40
2022-08-09T13:00:56.292Z,1.30
2022-08-09T13:03:53.579Z,1.40
2022-08-09T13:06:43.615Z,1.20
2022-08-09T13:09:30.550Z,1.35
2022-08-09T13:12:03.278Z,1.50
2022-08-09T13:14:42.348Z,1.73
2022-08-09T13:17:44.518Z,1.35
2022-08-09T13:20:16.229Z,1.50
2022-08-09T13:23:02.191Z,1.42
2022-08-09T13:25:55.089Z,1.60
2022-08-09T13:28:33.827Z,1.60
2022-08-09T13:32:14.404Z,1.60
2022-08-09T13:33:58.012Z,1.70
2022-08-09T13:36:42.224Z,1.35
2022-08-09T13:41:54.898Z,1.23
2022-08-09T13:42:12.019Z,1.20
2022-08-09T13:44:42.599Z,1.30
2022-08-09T13:47:26.486Z,1.33
2022-08-09T13:50:18.141Z,1.60
2022-08-09T13:52:55.945Z,1.30
2022-08-09T13:55:23.188Z,1.42
2022-08-09T13:57:53.019Z,1.30
2022-08-09T14:00:28.603Z,1.38
2022-08-09T14:03:03.543Z,1.42
2022-08-09T14:05:56.691Z,1.40
2022-08-09T14:08:30.167Z,1.30
2022-08-09T14:10:57.980Z,1.25
2022-08-09T14:13:27.900Z,1.20
2022-08-09T14:16:17.790Z,1.33
2022-08-09T14:18:51.722Z,1.23
2022-08-09T14:21:22.651Z,1.50
2022-08-09T14:23:56.645Z,1.50
2022-08-09T14:26:32.692Z,1.42
2022-08-09T14:29:03.141Z,1.17
2022-08-09T14:31:49.615Z,1.48
2022-08-09T14:34:31.761Z,1.33
2022-08-09T14:37:06.772Z,1.42
2022-08-09T14:39:40.281Z,1.25
2022-08-09T14:42:31.670Z,1.40
2022-08-09T14:46:54.751Z,1.30
2022-08-09T14:47:58.755Z,1.25
2022-08-09T14:50:32.975Z,1.35
2022-08-09T14:53:02.814Z,1.15
2022-08-09T14:55:32.714Z,1.20
2022-08-09T14:58:03.081Z,1.23
2022-08-09T15:00:32.071Z,1.17
2022-08-09T15:03:01.506Z,1.50
2022-08-09T15:05:28.402Z,1.20
2022-08-09T15:07:58.158Z,1.38
2022-08-09T15:10:26.806Z,1.30
2022-08-09T15:12:54.724Z,1.10
2022-08-09T15:15:22.424Z,1.50
2022-08-09T15:17:52.879Z,1.20
2022-08-09T15:21:55.662Z,1.25
2022-08-09T15:24:01.309Z,1.20
2022-08-09T15:25:58.230Z,1.20
2022-08-09T15:28:27.803Z,1.10
2022-08-09T15:31:10.289Z,1.10
2022-08-09T15:34:15.345Z,1.27
2022-08-09T15:36:30.356Z,1.30
2022-08-09T15:39:00.688Z,1.30
2022-08-09T15:41:31.508Z,1.27
2022-08-09T15:44:00.383Z,1.30
2022-08-09T15:46:33.428Z,1.27
2022-08-09T15:49:22.014Z,1.33
2022-08-09T15:52:05.032Z,1.20
2022-08-09T15:54:44.692Z,1.30
2022-08-09T15:57:14.107Z,1.38
2022-08-09T15:59:48.872Z,1.33
2022-08-09T16:04:54.364Z,1.38
2022-08-09T16:07:21.145Z,1.23
2022-08-09T16:09:57.564Z,1.40
2022-08-09T16:12:32.843Z,1.33
2022-08-09T16:15:00.652Z,1.40
2022-08-09T16:17:28.679Z,1.58
2022-08-09T16:20:04.634Z,1.30
2022-08-09T16:22:42.382Z,1.48
2022-08-09T16:25:15.883Z,1.27
2022-08-09T16:27:42.702Z,1.20
2022-08-09T16:30:15.038Z,1.20
2022-08-09T16:33:11.378Z,1.33
2022-08-09T16:35:57.556Z,1.20
2022-08-09T16:38:27.931Z,1.13
2022-08-09T16:40:56.811Z,1.30
2022-08-09T16:43:24.737Z,1.25
2022-08-09T16:45:54.109Z,1.10
2022-08-09T16:48:42.405Z,1.30
2022-08-09T16:51:13.810Z,1.00
2022-08-09T16:56:33.883Z,1.10
2022-08-09T16:59:06.771Z,1.10
2022-08-09T17:01:37.945Z,1.17
2022-08-09T17:04:06.761Z,1.40
2022-08-09T17:07:09.228Z,1.10
2022-08-09T17:09:45.686Z,1.20
2022-08-09T17:12:09.028Z,1.50
2022-08-09T17:14:35.804Z,1.20
2022-08-09T17:17:04.064Z,1.40
2022-08-09T17:20:29.311Z,1.20
2022-08-09T17:22:50.156Z,1.20
2022-08-09T17:25:20.371Z,1.20
2022-08-09T17:27:54.141Z,1.27
2022-08-09T17:30:28.006Z,1.38
2022-08-09T17:33:01.355Z,1.40
2022-08-09T17:35:35.005Z,1.20
2022-08-09T17:38:14.380Z,1.10
2022-08-09T17:40:49.541Z,1.00
2022-08-09T17:43:33.954Z,1.30
2022-08-09T17:46:06.662Z,1.20
2022-08-09T17:48:38.552Z,1.27
2022-08-09T17:51:09.975Z,1.30
2022-08-09T17:53:52.130Z,1.10
2022-08-09T17:56:27.469Z,1.10
2022-08-09T17:58:57.018Z,1.10
2022-08-09T18:01:24.042Z,1.42
2022-08-09T18:03:54.261Z,1.17
2022-08-09T18:06:31.861Z,1.30
2022-08-09T18:09:03.390Z,1.38
2022-08-09T18:11:47.154Z,1.33
2022-08-09T18:14:22.457Z,1.40
2022-08-09T18:16:49.950Z,1.30
2022-08-09T18:20:57.099Z,1.40
2022-08-09T18:22:05.713Z,1.55
2022-08-09T18:24:40.198Z,1.48
2022-08-09T18:27:10.067Z,1.88
2022-08-09T18:30:42.420Z,1.48
2022-08-09T18:32:29.780Z,1.55
2022-08-09T18:34:56.603Z,1.42
2022-08-09T18:37:47.590Z,1.50
2022-08-09T18:40:12.496Z,1.30
2022-08-09T18:42:39.387Z,1.40
2022-08-09T18:45:11.126Z,1.30
2022-08-09T18:47:58.637Z,1.17
2022-08-09T18:50:25.883Z,1.30
2022-08-09T18:53:01.134Z,1.45
2022-08-09T18:55:45.329Z,1.45
2022-08-09T18:58:31.769Z,1.30
2022-08-09T19:00:59.518Z,1.20
2022-08-09T19:03:27.392Z,1.50
2022-08-09T19:06:03.545Z,1.50
2022-08-09T19:08:31.975Z,1.42
2022-08-09T19:10:58.932Z,1.60
2022-08-09T19:13:37.974Z,1.40
2022-08-09T19:16:07.135Z,1.15
2022-08-09T19:18:39.847Z,1.55
2022-08-09T19:21:10.813Z,1.50
2022-08-09T19:24:33.390Z,1.50
2022-08-09T19:26:31.493Z,1.55
2022-08-09T19:29:15.766Z,1.40
2022-08-09T19:31:49.425Z,1.55
2022-08-09T19:34:22.768Z,1.55
2022-08-09T19:36:55.685Z,1.45
2022-08-09T19:39:43.760Z,1.52
2022-08-09T19:42:15.148Z,1.58
2022-08-09T19:44:50.569Z,1.70
2022-08-09T19:47:23.754Z,1.70
2022-08-09T19:50:08.840Z,1.70
2022-08-09T19:52:51.324Z,1.48
2022-08-09T19:55:25.603Z,1.60
2022-08-09T19:57:57.775Z,1.58
2022-08-09T20:00:24.612Z,1.80
2022-08-09T20:04:11.491Z,1.60
2022-08-09T20:05:46.806Z,1.60
2022-08-09T20:08:33.331Z,1.60
2022-08-09T20:11:04.552Z,1.77
2022-08-09T20:13:37.026Z,1.73
2022-08-09T20:16:34.684Z,1.90
2022-08-09T20:19:42.196Z,1.50
2022-08-09T20:21:56.332Z,1.55
2022-08-09T20:24:29.654Z,1.60
2022-08-09T20:27:01.185Z,1.65
2022-08-09T20:29:36.947Z,1.65
2022-08-09T20:32:29.949Z,1.52
2022-08-09T20:37:25.919Z,1.92
2022-08-09T20:40:19.005Z,1.70
2022-08-09T20:42:59.864Z,1.60
2022-08-09T20:46:00.704Z,1.85
2022-08-09T20:48:28.961Z,1.77
2022-08-09T20:51:03.089Z,2.00
2022-08-09T20:53:36.460Z,1.90
2022-08-09T20:56:20.494Z,1.70
2022-08-09T20:58:57.760Z,1.95
2022-08-09T21:01:34.321Z,1.80
2022-08-09T21:05:56.201Z,1.90
2022-08-09T21:07:12.938Z,2.35
2022-08-09T21:09:56.275Z,2.40
2022-08-09T21:12:32.286Z,2.13
2022-08-09T21:15:23.324Z,1.75
2022-08-09T21:18:22.312Z,2.20
2022-08-09T21:20:37.658Z,2.25
2022-08-09T21:23:09.162Z,2.22
2022-08-09T21:25:55.559Z,2.20
2022-08-09T21:28:34.634Z,2.33
2022-08-09T21:31:16.680Z,2.33
2022-08-09T21:33:50.779Z,2.20
2022-08-09T21:38:57.602Z,2.05
2022-08-09T21:42:06.019Z,2.40
2022-08-09T21:44:34.625Z,2.03
2022-08-09T21:47:07.660Z,2.33
2022-08-09T21:49:43.040Z,2.28
2022-08-09T21:52:17.595Z,2.50
2022-08-09T21:55:04.916Z,2.15
2022-08-09T21:57:39.287Z,2.90
2022-08-09T22:00:32.169Z,2.13
2022-08-09T22:03:04.455Z,2.38
2022-08-09T22:05:36.736Z,2.35
2022-08-09T22:08:12.854Z,2.20
2022-08-09T22:11:00.809Z,2.17
2022-08-09T22:13:34.165Z,2.50
2022-08-09T22:16:03.602Z,2.30
2022-08-09T22:18:32.998Z,2.28
2022-08-09T22:21:00.884Z,2.50
2022-08-09T22:23:35.688Z,2.53
2022-08-09T22:26:23.521Z,2.42
2022-08-09T22:29:06.836Z,2.70
2022-08-09T22:31:35.609Z,2.60
2022-08-09T22:34:03.393Z,2.10
2022-08-09T22:36:37.324Z,2.55
2022-08-09T22:39:46.700Z,2.38
2022-08-09T22:42:02.966Z,2.63
2022-08-09T22:44:32.774Z,2.15
2022-08-09T22:48:14.264Z,2.45
2022-08-09T22:49:47.694Z,2.45
2022-08-09T22:52:19.681Z,2.15
2022-08-09T22:54:47.453Z,2.42
2022-08-09T22:57:14.578Z,2.35
2022-08-09T22:59:55.400Z,2.35
2022-08-09T23:02:23.395Z,2.40
2022-08-09T23:04:53.950Z,2.40
2022-08-09T23:08:27.826Z,2.50
2022-08-09T23:10:29.315Z,2.20
2022-08-09T23:12:56.477Z,2.70
2022-08-09T23:15:23.417Z,2.72
2022-08-09T23:17:50.231Z,2.30
2022-08-09T23:20:17.043Z,2.25
2022-08-09T23:22:43.789Z,2.35
2022-08-09T23:25:11.027Z,2.53
2022-08-09T23:28:00.605Z,2.60
2022-08-09T23:30:24.606Z,2.80
2022-08-09T23:32:51.417Z,2.60
2022-08-09T23:35:18.205Z,2.85
2022-08-09T23:37:44.959Z,2.80
2022-08-09T23:40:12.328Z,2.88
2022-08-09T23:42:39.176Z,2.80
2022-08-09T23:45:08.893Z,2.80
2022-08-09T23:47:36.590Z,2.97
2022-08-09T23:50:04.589Z,2.92
2022-08-09T23:52:31.893Z,2.70
2022-08-09T23:54:59.996Z,3.15
2022-08-09T23:57:27.207Z,3.13
